Time;durP1;ratioP1;P1;durP2;ratioP2;P2;SDS_P1;SDS_P2;PMS_P1;PMS_P2;Temp;Humidity;BMP_temperature;BMP_pressure;BME280_temperature;BME280_humidity;BME280_pressure;Samples;Min_cycle;Max_cycle;Signal;HPM_P1;HPM_P2
2022/09/19 00:05:06;;;;;;;5.40;1.43;;;;;;;7.86;100.00;99677.67;5228787;56;1134993;-73
2022/09/19 00:10:12;;;;;;;2.37;1.43;;;;;;;7.80;100.00;99670.25;5189861;56;1135423;-74
2022/09/19 00:15:18;;;;;;;3.13;1.57;;;;;;;7.77;100.00;99675.30;5227670;55;1134847;-74
2022/09/19 00:20:24;;;;;;;2.93;1.43;;;;;;;7.81;100.00;99671.44;5228880;56;1134806;-74
2022/09/19 00:25:30;;;;;;;4.60;1.40;;;;;;;7.75;100.00;99681.16;5228881;55;1134872;-74
2022/09/19 00:30:40;;;;;;;4.40;1.40;;;;;;;7.71;100.00;99683.67;5228880;56;1134898;-74
2022/09/19 00:35:49;;;;;;;6.90;2.07;;;;;;;7.68;100.00;99680.80;5219820;56;1134876;-74
2022/09/19 00:40:55;;;;;;;4.60;1.80;;;;;;;7.67;100.00;99678.28;5221582;55;1135204;-74
2022/09/19 00:46:01;;;;;;;2.83;1.30;;;;;;;7.65;100.00;99682.34;5228993;55;1134814;-73
2022/09/19 00:51:07;;;;;;;2.90;1.53;;;;;;;7.66;100.00;99680.55;5248650;55;1134962;-74
2022/09/19 00:56:15;;;;;;;4.00;1.23;;;;;;;7.63;100.00;99683.45;5280305;55;1132831;-73
2022/09/19 01:01:22;;;;;;;3.30;1.30;;;;;;;7.61;100.00;99684.05;5193004;56;1133024;-73
2022/09/19 01:06:50;;;;;;;4.20;1.40;;;;;;;7.57;100.00;99685.23;5229107;56;1137045;-74
2022/09/19 01:12:06;;;;;;;4.23;1.40;;;;;;;7.49;100.00;99673.98;5209068;56;1137034;-73
2022/09/19 01:17:19;;;;;;;5.70;2.13;;;;;;;7.50;100.00;99682.72;5221946;56;1137021;-74
2022/09/19 01:22:56;;;;;;;5.57;1.57;;;;;;;7.43;100.00;99688.95;5219356;56;1136960;-74
2022/09/19 01:28:27;;;;;;;1.60;1.10;;;;;;;7.37;100.00;99687.63;5219607;56;1136930;-73
2022/09/19 01:33:37;;;;;;;2.37;1.33;;;;;;;7.32;100.00;99693.73;5226064;55;1136962;-74
2022/09/19 01:38:46;;;;;;;2.63;1.40;;;;;;;7.24;100.00;99692.16;5255335;55;1136918;-74
2022/09/19 01:43:53;;;;;;;3.33;1.27;;;;;;;7.26;100.00;99698.14;5235110;56;1137187;-74
2022/09/19 01:49:22;;;;;;;8.00;1.50;;;;;;;7.24;100.00;99689.53;5223454;55;1136920;-74
2022/09/19 01:54:57;;;;;;;1.47;1.30;;;;;;;7.19;100.00;99698.23;5239760;55;1136935;-73
2022/09/19 02:00:17;;;;;;;2.07;1.27;;;;;;;7.17;100.00;99700.17;5232616;56;1134855;-72
2022/09/19 02:05:49;;;;;;;4.20;1.40;;;;;;;7.10;100.00;99698.12;5114522;57;1135028;-72
2022/09/19 02:11:22;;;;;;;2.83;1.47;;;;;;;7.09;100.00;99702.54;5142375;57;1134895;-72
2022/09/19 02:16:36;;;;;;;3.20;1.77;;;;;;;7.06;100.00;99704.08;5146660;57;1134883;-72
2022/09/19 02:21:48;;;;;;;2.76;1.42;;;;;;;7.01;100.00;99699.19;5165745;57;1136969;-74
2022/09/19 02:26:57;;;;;;;5.47;1.83;;;;;;;6.95;100.00;99698.33;5044250;58;1136931;-72
2022/09/19 02:32:04;;;;;;;4.80;2.00;;;;;;;6.95;100.00;99706.22;5156351;57;1136936;-72
2022/09/19 02:37:36;;;;;;;3.97;2.57;;;;;;;6.96;100.00;99710.52;5061118;57;1136955;-73
2022/09/19 02:43:03;;;;;;;6.20;3.23;;;;;;;7.00;100.00;99705.88;5229285;56;1136928;-72
2022/09/19 02:48:58;;;;;;;4.77;2.90;;;;;;;6.97;100.00;99706.94;5193568;55;1137258;-73
2022/09/19 02:54:21;;;;;;;4.50;2.93;;;;;;;6.98;100.00;99711.25;5301714;55;1137021;-73
2022/09/19 02:59:34;;;;;;;4.70;2.70;;;;;;;6.99;100.00;99711.61;5318352;55;1136947;-72
2022/09/19 03:04:44;;;;;;;3.70;3.17;;;;;;;7.03;100.00;99716.98;5318244;55;1137225;-72
2022/09/19 03:10:12;;;;;;;6.80;3.20;;;;;;;7.08;100.00;99715.80;5228545;55;1136954;-72
2022/09/19 03:15:47;;;;;;;9.67;4.37;;;;;;;7.15;100.00;99721.80;5227907;56;1134857;-72
2022/09/19 03:21:02;;;;;;;7.03;4.10;;;;;;;7.20;100.00;99721.43;5229269;56;1134762;-72
2022/09/19 03:26:16;;;;;;;8.50;5.33;;;;;;;7.23;100.00;99722.52;5229082;55;1134892;-72
2022/09/19 03:31:22;;;;;;;5.63;5.03;;;;;;;7.22;100.00;99730.05;5229101;56;1134994;-73
2022/09/19 03:36:35;;;;;;;9.13;4.73;;;;;;;7.16;100.00;99723.95;5219338;55;1134896;-72
2022/09/19 03:41:43;;;;;;;8.13;7.10;;;;;;;7.13;100.00;99728.97;5216210;56;1134822;-73
2022/09/19 03:46:50;;;;;;;8.30;5.67;;;;;;;7.15;100.00;99732.80;5218304;56;1132930;-72
2022/09/19 03:51:58;;;;;;;6.60;4.80;;;;;;;7.20;100.00;99733.27;5252851;55;1132667;-73
2022/09/19 03:57:04;;;;;;;9.20;4.47;;;;;;;7.24;100.00;99725.52;5270120;55;1137116;-73
2022/09/19 04:02:12;;;;;;;6.77;5.50;;;;;;;7.18;100.00;99736.01;5270731;55;1137022;-71
2022/09/19 04:07:19;;;;;;;11.23;5.13;;;;;;;7.17;100.00;99743.56;5306969;55;1136909;-73
2022/09/19 04:12:26;;;;;;;12.63;5.90;;;;;;;7.20;100.00;99739.36;5300903;55;1139069;-73
2022/09/19 04:17:32;;;;;;;7.90;5.37;;;;;;;7.23;100.00;99741.77;5237697;55;1139014;-73
2022/09/19 04:22:40;;;;;;;10.23;4.17;;;;;;;7.20;100.00;99739.84;5208629;56;1136846;-73
2022/09/19 04:28:02;;;;;;;9.90;5.97;;;;;;;7.17;100.00;99747.98;5202923;56;1139266;-72
2022/09/19 04:33:07;;;;;;;8.53;4.37;;;;;;;7.16;100.00;99747.15;5208956;56;1137281;-73
2022/09/19 04:38:20;;;;;;;9.57;4.63;;;;;;;7.17;100.00;99749.30;5203068;56;1136807;-72
2022/09/19 04:43:29;;;;;;;8.77;5.37;;;;;;;7.16;100.00;99752.41;5205469;56;1136963;-72
2022/09/19 04:48:42;;;;;;;15.47;6.90;;;;;;;7.13;100.00;99757.89;5181479;56;1136943;-73
2022/09/19 04:53:49;;;;;;;13.40;8.28;;;;;;;7.18;100.00;99764.13;5255128;55;1139035;-73
2022/09/19 04:58:54;;;;;;;7.03;5.63;;;;;;;7.22;100.00;99770.33;5296879;55;1139147;-73
2022/09/19 05:04:00;;;;;;;6.17;4.93;;;;;;;7.24;100.00;99767.11;5305024;55;1137250;-73
2022/09/19 05:09:06;;;;;;;9.77;6.13;;;;;;;7.26;100.00;99772.27;5242495;55;1136867;-72
2022/09/19 05:14:14;;;;;;;4.73;4.33;;;;;;;7.28;100.00;99780.40;5279766;55;1137007;-73
2022/09/19 05:19:22;;;;;;;7.33;5.00;;;;;;;7.32;100.00;99783.64;5173107;56;1136923;-73
2022/09/19 05:24:29;;;;;;;7.13;5.30;;;;;;;7.31;100.00;99787.23;5171984;56;1136989;-73
2022/09/19 05:29:39;;;;;;;8.03;5.10;;;;;;;7.35;100.00;99798.69;5174715;56;1137064;-74
2022/09/19 05:34:45;;;;;;;9.73;5.20;;;;;;;7.40;100.00;99800.51;5211486;56;1137193;-73
2022/09/19 05:40:03;;;;;;;10.37;6.07;;;;;;;7.46;100.00;99807.11;5176792;55;1136801;-73
2022/09/19 05:45:23;;;;;;;8.55;4.95;;;;;;;7.42;100.00;99806.97;5184823;55;1139014;-73
2022/09/19 05:50:30;;;;;;;6.80;5.97;;;;;;;7.47;100.00;99811.42;5228103;56;1136957;-73
2022/09/19 05:55:36;;;;;;;6.73;5.83;;;;;;;7.53;100.00;99814.88;5228479;55;1136939;-73
2022/09/19 06:00:44;;;;;;;7.87;5.45;;;;;;;7.56;100.00;99822.55;5208616;55;1136931;-74
2022/09/19 06:05:52;;;;;;;7.97;6.00;;;;;;;7.60;100.00;99822.68;5184606;55;1135463;-74
2022/09/19 06:11:01;;;;;;;6.17;5.57;;;;;;;7.63;100.00;99828.20;5129549;57;1135322;-73
2022/09/19 06:16:08;;;;;;;8.10;5.90;;;;;;;7.64;100.00;99834.63;5141999;56;1135212;-73
2022/09/19 06:21:22;;;;;;;8.13;4.60;;;;;;;7.65;100.00;99832.36;5108127;57;1135265;-74
2022/09/19 06:26:28;;;;;;;10.40;4.60;;;;;;;7.63;100.00;99839.56;5142538;56;1134761;-74
2022/09/19 06:31:35;;;;;;;6.87;5.67;;;;;;;7.61;100.00;99845.41;5192176;56;1136854;-73
2022/09/19 06:36:49;;;;;;;11.03;7.07;;;;;;;7.63;100.00;99842.19;5176150;56;1134886;-73
2022/09/19 06:41:56;;;;;;;7.00;5.07;;;;;;;7.68;100.00;99843.97;5199735;55;1136891;-73
2022/09/19 06:47:13;;;;;;;11.53;5.37;;;;;;;7.71;100.00;99845.06;5127881;56;1135376;-72
2022/09/19 06:52:30;;;;;;;10.80;6.20;;;;;;;7.75;100.00;99849.14;5243568;55;1134946;-74
2022/09/19 06:57:36;;;;;;;6.17;5.57;;;;;;;7.80;100.00;99851.88;5326652;54;1135041;-73
2022/09/19 07:02:44;;;;;;;8.30;6.50;;;;;;;7.88;100.00;99862.20;5251691;54;1137118;-73
2022/09/19 07:07:52;;;;;;;7.00;6.30;;;;;;;7.89;100.00;99861.72;5177682;56;1138662;-74
2022/09/19 07:13:03;;;;;;;9.40;7.17;;;;;;;7.88;100.00;99866.63;5167805;56;1136976;-74
2022/09/19 07:18:12;;;;;;;24.37;15.13;;;;;;;7.88;100.00;99866.63;5174776;56;1137230;-74
2022/09/19 07:23:21;;;;;;;8.27;5.53;;;;;;;7.94;100.00;99880.65;5043769;57;1141072;-73
2022/09/19 07:28:43;;;;;;;9.73;5.90;;;;;;;8.00;100.00;99878.84;5042548;57;1136873;-74
2022/09/19 07:33:49;;;;;;;6.10;5.00;;;;;;;8.07;100.00;99884.84;5019197;58;1136956;-73
2022/09/19 07:38:56;;;;;;;8.20;5.65;;;;;;;8.11;100.00;99894.16;5017766;57;1136998;-74
2022/09/19 07:44:12;;;;;;;7.33;5.40;;;;;;;8.13;100.00;99903.27;5223584;56;1136837;-73
2022/09/19 07:49:36;;;;;;;12.17;7.43;;;;;;;8.10;100.00;99907.45;5221276;56;1137338;-74
2022/09/19 07:55:00;;;;;;;9.78;7.25;;;;;;;8.10;100.00;99912.72;5142858;57;1139061;-73
2022/09/19 08:00:08;;;;;;;11.13;6.47;;;;;;;8.10;100.00;99909.61;5151500;56;1136352;-73
2022/09/19 08:05:16;;;;;;;12.13;7.43;;;;;;;8.15;100.00;99917.64;5187835;56;1138988;-75
2022/09/19 08:10:22;;;;;;;7.83;6.03;;;;;;;8.20;100.00;99917.66;5193907;56;1139062;-74
2022/09/19 08:15:28;;;;;;;7.33;5.40;;;;;;;8.24;100.00;99922.22;5228774;56;1137171;-74
2022/09/19 08:20:37;;;;;;;6.93;5.67;;;;;;;8.30;100.00;99925.67;5227384;55;1137287;-73
2022/09/19 08:25:47;;;;;;;7.50;6.77;;;;;;;8.37;100.00;99929.55;5204854;56;1136833;-74
2022/09/19 08:30:55;;;;;;;8.10;5.97;;;;;;;8.40;100.00;99936.72;5190364;56;1136958;-73
2022/09/19 08:36:02;;;;;;;14.40;7.40;;;;;;;8.45;100.00;99946.44;5173414;56;1137198;-73
2022/09/19 08:41:37;;;;;;;7.35;6.28;;;;;;;8.51;100.00;99946.45;5084761;56;1139057;-73
2022/09/19 08:46:53;;;;;;;7.08;5.97;;;;;;;8.58;100.00;99954.22;5121807;57;1134932;-73
2022/09/19 08:52:13;;;;;;;5.40;4.83;;;;;;;8.64;100.00;99961.66;5124360;57;1135423;-73
2022/09/19 08:57:26;;;;;;;5.07;4.20;;;;;;;8.69;100.00;99969.21;5103086;57;1134733;-73
2022/09/19 09:02:54;;;;;;;6.27;4.47;;;;;;;8.77;100.00;99972.91;4988082;58;1134962;-73
2022/09/19 09:08:04;;;;;;;4.77;3.40;;;;;;;8.81;100.00;99980.95;4984378;59;1132922;-73
2022/09/19 09:14:04;;;;;;;3.83;3.53;;;;;;;8.87;100.00;99978.28;4961146;58;1137225;-72
2022/09/19 09:19:26;;;;;;;5.83;3.83;;;;;;;8.96;100.00;99970.14;4959027;59;1137489;-73
2022/09/19 09:24:39;;;;;;;3.60;3.13;;;;;;;9.08;100.00;99970.00;4926790;58;1137271;-74
2022/09/19 09:29:59;;;;;;;2.73;2.53;;;;;;;9.21;100.00;99975.59;5036642;58;1136990;-73
2022/09/19 09:35:34;;;;;;;3.13;2.93;;;;;;;9.29;100.00;99978.48;4930492;58;1137212;-73
2022/09/19 09:46:24;;;;;;;2.40;2.30;;;;;;;9.39;100.00;99980.72;5217611;56;1136952;-72
2022/09/19 09:51:39;;;;;;;2.35;2.25;;;;;;;9.45;100.00;99986.83;5220493;56;1136932;-73
2022/09/19 09:56:53;;;;;;;2.80;2.63;;;;;;;9.48;100.00;99990.52;5195594;56;1135097;-73
2022/09/19 10:07:39;;;;;;;3.00;2.80;;;;;;;9.59;100.00;99995.78;5189282;56;1134878;-72
2022/09/19 10:13:05;;;;;;;2.67;2.47;;;;;;;9.66;100.00;100006.17;5165360;56;1134973;-72
2022/09/19 10:18:18;;;;;;;2.93;2.73;;;;;;;9.72;100.00;100012.77;5189505;55;1134894;-72
2022/09/19 10:23:45;;;;;;;2.23;2.13;;;;;;;9.77;100.00;100020.68;5202533;55;1139261;-72
2022/09/19 10:28:59;;;;;;;3.57;3.17;;;;;;;9.86;100.00;100027.00;5219300;55;1138954;-73
2022/09/19 10:34:35;;;;;;;3.20;2.90;;;;;;;9.93;100.00;100030.79;5217513;55;1139249;-73
2022/09/19 10:39:48;;;;;;;1.90;1.80;;;;;;;9.93;100.00;100027.34;5186163;55;1139035;-73
2022/09/19 10:45:00;;;;;;;2.00;1.80;;;;;;;10.01;100.00;100035.45;5190307;55;1138938;-72
2022/09/19 10:50:06;;;;;;;2.30;2.20;;;;;;;10.02;100.00;100035.81;5196373;56;1141339;-73
2022/09/19 10:55:22;;;;;;;3.07;2.53;;;;;;;10.04;100.00;100041.33;5165856;56;1140583;-72
2022/09/19 11:00:52;;;;;;;2.50;2.30;;;;;;;10.15;100.00;100043.91;5182265;56;1141151;-72
2022/09/19 11:06:14;;;;;;;2.00;1.90;;;;;;;10.23;100.00;100042.00;5214370;55;1141227;-73
2022/09/19 11:11:47;;;;;;;2.05;1.95;;;;;;;10.39;100.00;100040.23;5145966;56;1141117;-73
2022/09/19 11:17:18;;;;;;;1.77;1.67;;;;;;;10.56;100.00;100031.67;5205551;56;1139235;-74
2022/09/19 11:22:39;;;;;;;2.53;2.33;;;;;;;10.83;100.00;100037.27;5250873;55;1139007;-73
2022/09/19 11:28:04;;;;;;;2.00;1.90;;;;;;;10.92;100.00;100036.95;5263992;56;1139044;-74
2022/09/19 11:33:21;;;;;;;2.33;1.90;;;;;;;10.97;100.00;100046.66;5184093;55;1139418;-74
2022/09/19 11:38:36;;;;;;;3.10;2.17;;;;;;;11.07;100.00;100040.91;5164172;55;1137119;-73
2022/09/19 11:44:33;;;;;;;1.85;1.75;;;;;;;11.20;100.00;100040.66;5239216;55;1140976;-72
2022/09/19 11:50:16;;;;;;;2.43;2.20;;;;;;;11.42;100.00;100030.35;5268562;55;1141063;-73
2022/09/19 11:55:43;;;;;;;1.30;1.30;;;;;;;11.80;100.00;100030.91;5252000;56;1141280;-73
2022/09/19 12:01:05;;;;;;;2.40;1.47;;;;;;;11.97;100.00;100027.56;5270470;55;1141362;-73
2022/09/19 12:06:49;;;;;;;1.50;1.40;;;;;;;12.13;100.00;100025.19;5175478;56;1141129;-73
2022/09/19 12:12:02;;;;;;;2.75;1.60;;;;;;;12.37;100.00;100025.25;5182159;56;1141398;-73
2022/09/19 12:17:26;;;;;;;1.90;1.63;;;;;;;12.64;100.00;100020.84;5205413;56;1138959;-72
2022/09/19 12:22:36;;;;;;;1.27;1.17;;;;;;;12.84;100.00;100022.92;5210328;56;1139214;-74
2022/09/19 12:28:06;;;;;;;1.00;1.00;;;;;;;13.13;100.00;100021.98;5211802;56;1139205;-72
2022/09/19 12:33:31;;;;;;;1.60;1.23;;;;;;;13.26;100.00;100021.17;5211699;56;1139106;-72
2022/09/19 12:38:59;;;;;;;1.40;1.27;;;;;;;13.33;100.00;100023.07;5220719;56;1136866;-72
2022/09/19 12:44:29;;;;;;;1.07;1.07;;;;;;;13.37;100.00;100028.44;5234492;56;1141076;-72
2022/09/19 12:49:58;;;;;;;5.33;1.00;;;;;;;13.49;100.00;100025.56;5268775;56;1141056;-72
2022/09/19 12:55:30;;;;;;;1.50;0.80;;;;;;;13.57;100.00;100022.52;5224398;56;1141299;-72
2022/09/19 13:00:42;;;;;;;3.20;1.10;;;;;;;13.69;100.00;100023.13;5198043;56;1141053;-73
2022/09/19 13:06:00;;;;;;;1.63;1.00;;;;;;;13.75;100.00;100017.19;5155252;56;1141273;-72
2022/09/19 13:11:28;;;;;;;0.60;0.60;;;;;;;13.84;100.00;100025.60;5235189;56;1141272;-73
2022/09/19 13:23:29;;;;;;;1.07;1.00;;;;;;;13.84;100.00;100034.07;5235192;56;1141670;-72
2022/09/19 13:27:12;;;;;;;2.37;0.93;;;;;;;14.01;100.00;100035.89;5293194;55;1141291;-72
2022/09/19 13:32:57;;;;;;;1.00;1.00;;;;;;;14.02;100.00;100046.87;5262513;55;1139084;-72
2022/09/19 13:38:11;;;;;;;0.82;0.82;;;;;;;14.05;100.00;100047.37;5155343;56;1139077;-72
2022/09/19 13:43:24;;;;;;;1.10;1.00;;;;;;;14.13;100.00;100039.98;5152916;56;1139159;-73
2022/09/19 13:48:53;;;;;;;0.73;0.73;;;;;;;14.30;100.00;100043.12;5289053;55;1139289;-73
2022/09/19 13:54:24;;;;;;;1.97;1.10;;;;;;;14.42;99.15;100053.05;5149293;55;1137206;-72
2022/09/19 13:59:51;;;;;;;0.63;0.63;;;;;;;14.48;97.03;100053.77;5133008;56;1139045;-73
2022/09/19 14:05:20;;;;;;;5.17;1.43;;;;;;;14.75;95.19;100058.09;5187563;56;1138997;-73
2022/09/19 14:10:39;;;;;;;0.30;0.30;;;;;;;14.87;95.24;100070.64;5188612;56;1139033;-72
2022/09/19 14:16:13;;;;;;;2.63;0.40;;;;;;;14.62;91.69;100069.66;5132795;56;1139032;-72
2022/09/19 14:21:44;;;;;;;1.27;1.17;;;;;;;14.09;95.08;100104.59;5130429;56;1139063;-72
2022/09/19 14:27:19;;;;;;;1.80;0.80;;;;;;;13.59;97.73;100118.03;5132822;56;1138958;-72
2022/09/19 14:32:41;;;;;;;1.37;0.50;;;;;;;12.98;100.00;100118.03;5200757;55;1138954;-72
2022/09/19 14:38:26;;;;;;;3.07;1.90;;;;;;;12.52;100.00;100132.57;5225996;56;1139034;-72
2022/09/19 14:43:57;;;;;;;2.20;0.90;;;;;;;12.29;100.00;100134.17;5086657;56;1138984;-73
2022/09/19 14:49:27;;;;;;;0.93;0.90;;;;;;;12.19;100.00;100132.02;5234733;56;1136903;-73
2022/09/19 14:54:41;;;;;;;2.37;1.10;;;;;;;12.15;100.00;100149.16;5322350;55;1141036;-72
2022/09/19 14:59:48;;;;;;;0.80;0.60;;;;;;;12.06;100.00;100143.38;5295882;55;1141164;-73
2022/09/19 15:05:15;;;;;;;0.63;0.50;;;;;;;12.06;100.00;100143.38;5240759;56;1140955;-73
2022/09/19 15:10:29;;;;;;;0.87;0.70;;;;;;;12.11;100.00;100143.78;5237779;56;1141044;-73
2022/09/19 15:15:36;;;;;;;3.20;0.80;;;;;;;12.18;100.00;100154.20;5239902;55;1141193;-74
2022/09/19 15:20:42;;;;;;;0.67;0.60;;;;;;;12.26;100.00;100152.16;5240474;55;1141039;-74
2022/09/19 15:25:48;;;;;;;0.90;0.50;;;;;;;12.35;100.00;100155.33;5270041;55;1141024;-74
2022/09/19 15:31:00;;;;;;;1.93;0.60;;;;;;;12.43;100.00;100152.80;5276949;55;1141121;-74
2022/09/19 15:36:03;;;;;;;2.20;0.63;;;;;;;12.47;100.00;100153.36;5184274;56;1141347;-74
2022/09/19 15:41:17;;;;;;;2.47;1.23;;;;;;;12.48;100.00;100157.20;5098933;57;1141069;-74
2022/09/19 15:46:45;;;;;;;2.00;1.80;;;;;;;12.44;100.00;100153.15;5253219;55;1141099;-73
2022/09/19 15:52:01;;;;;;;2.00;1.03;;;;;;;12.43;100.00;100154.12;5256428;55;1140865;-74
2022/09/19 15:57:30;;;;;;;3.63;0.90;;;;;;;12.39;100.00;100163.81;5253187;55;1141142;-74
2022/09/19 16:02:34;;;;;;;2.10;1.00;;;;;;;12.36;100.00;100169.42;5240399;55;1141109;-74
2022/09/19 16:13:07;;;;;;;1.47;0.97;;;;;;;12.27;100.00;100179.87;5242781;55;1139091;-74
2022/09/19 16:18:18;;;;;;;3.00;1.50;;;;;;;12.22;100.00;100183.92;5234302;56;1138975;-68
2022/09/19 16:23:28;;;;;;;2.17;1.03;;;;;;;12.23;100.00;100175.81;5262282;55;1139135;-73
2022/09/19 16:28:40;;;;;;;4.13;1.60;;;;;;;12.26;100.00;100190.61;5323382;55;1139293;-73
2022/09/19 16:34:03;;;;;;;5.50;1.80;;;;;;;12.24;100.00;100199.19;5242642;56;1139261;-73
2022/09/19 16:39:27;;;;;;;1.70;1.10;;;;;;;12.20;100.00;100207.08;5175380;56;1139151;-72
2022/09/19 16:44:50;;;;;;;2.80;2.43;;;;;;;12.20;100.00;100207.08;5111062;57;1137101;-73
2022/09/19 16:49:57;;;;;;;7.03;3.87;;;;;;;12.26;100.00;100221.10;5242438;56;1141063;-72
2022/09/19 16:55:25;;;;;;;1.30;0.80;;;;;;;12.20;100.00;100225.16;5146942;57;1141210;-72
2022/09/19 17:00:31;;;;;;;2.17;1.57;;;;;;;12.16;100.00;100228.20;5151335;57;1141302;-72
2022/09/19 17:05:38;;;;;;;1.70;1.60;;;;;;;12.17;100.00;100241.81;5151271;57;1141136;-73
2022/09/19 17:10:46;;;;;;;8.00;1.70;;;;;;;12.14;100.00;100247.38;5151373;57;1141072;-72
2022/09/19 17:16:01;;;;;;;1.00;1.00;;;;;;;12.07;100.00;100252.38;5151285;57;1141132;-73
2022/09/19 17:21:10;;;;;;;2.10;1.53;;;;;;;12.02;100.00;100258.59;5151415;57;1141017;-72
2022/09/19 17:26:16;;;;;;;2.15;1.17;;;;;;;11.97;100.00;100263.45;5151032;57;1141112;-71
2022/09/19 17:31:25;;;;;;;2.87;1.83;;;;;;;11.93;100.00;100266.84;5151350;57;1141104;-72
2022/09/19 17:36:31;;;;;;;2.23;1.63;;;;;;;11.87;100.00;100267.87;5146982;57;1141106;-72
2022/09/19 17:41:37;;;;;;;3.80;2.07;;;;;;;11.78;100.00;100268.17;5146893;57;1141063;-72
2022/09/19 17:46:44;;;;;;;4.50;1.50;;;;;;;11.76;100.00;100271.95;5149740;56;1141058;-72
2022/09/19 17:51:49;;;;;;;10.40;6.50;;;;;;;11.73;100.00;100273.02;5272908;55;1141334;-73
2022/09/19 17:56:55;;;;;;;7.00;4.80;;;;;;;11.79;100.00;100279.61;5249614;55;1143270;-72
2022/09/19 18:07:25;;;;;;;6.58;3.58;;;;;;;11.87;100.00;100285.95;5297800;55;1145212;-74
2022/09/19 18:12:31;;;;;;;2.67;2.33;;;;;;;11.82;100.00;100300.55;5298642;55;1141097;-72
2022/09/19 18:17:36;;;;;;;3.60;2.70;;;;;;;11.75;100.00;100296.73;5298514;55;1141081;-72
2022/09/19 18:22:43;;;;;;;1.93;1.83;;;;;;;11.72;100.00;100303.13;5245025;55;1141051;-72
2022/09/19 18:27:49;;;;;;;3.37;2.63;;;;;;;11.73;100.00;100302.65;5121672;57;1141310;-72
2022/09/19 18:32:56;;;;;;;3.47;2.40;;;;;;;11.68;100.00;100304.84;5164472;56;1141014;-72
2022/09/19 18:38:02;;;;;;;10.60;2.50;;;;;;;11.63;100.00;100310.04;5127010;56;1141174;-73
2022/09/19 18:43:08;;;;;;;3.30;2.60;;;;;;;11.60;100.00;100318.75;5119266;56;1143170;-73
2022/09/19 18:48:14;;;;;;;3.43;2.30;;;;;;;11.57;100.00;100316.36;5053966;57;1141363;-74
2022/09/19 18:53:21;;;;;;;3.47;2.23;;;;;;;11.53;100.00;100320.23;5237684;55;1141162;-73
2022/09/19 18:58:27;;;;;;;6.83;2.87;;;;;;;11.46;100.00;100326.52;5191255;56;1139076;-72
2022/09/19 19:03:35;;;;;;;3.30;2.30;;;;;;;11.44;100.00;100327.16;5227149;55;1139029;-72
2022/09/19 19:08:42;;;;;;;4.40;3.13;;;;;;;11.43;100.00;100326.80;5223362;55;1139059;-74
2022/09/19 19:13:47;;;;;;;5.70;3.77;;;;;;;11.41;100.00;100332.70;5205765;56;1139054;-74
2022/09/19 19:18:54;;;;;;;3.93;2.70;;;;;;;11.41;100.00;100339.80;5222845;56;1139115;-72
2022/09/19 19:24:02;;;;;;;7.77;4.50;;;;;;;11.37;100.00;100331.27;5240027;56;1139154;-73
2022/09/19 19:29:07;;;;;;;7.23;3.10;;;;;;;11.38;100.00;100329.47;5242946;56;1139005;-73
2022/09/19 19:34:13;;;;;;;3.73;2.70;;;;;;;11.39;100.00;100333.80;5243044;56;1139316;-73
2022/09/19 19:39:19;;;;;;;3.47;2.13;;;;;;;11.46;100.00;100327.84;5165009;56;1139149;-73
2022/09/19 19:44:25;;;;;;;4.03;2.63;;;;;;;11.47;100.00;100333.98;5223071;56;1139494;-74
2022/09/19 19:49:31;;;;;;;3.10;2.10;;;;;;;11.37;100.00;100331.27;5222157;55;1139322;-74
2022/09/19 19:54:36;;;;;;;3.70;2.40;;;;;;;11.30;100.00;100340.72;5241107;56;1139053;-74
2022/09/19 19:59:44;;;;;;;3.20;1.60;;;;;;;11.13;100.00;100346.08;5238581;56;1139062;-74
2022/09/19 20:04:50;;;;;;;3.17;1.90;;;;;;;11.01;100.00;100348.39;5229207;56;1139290;-74
2022/09/19 20:09:56;;;;;;;6.97;3.60;;;;;;;11.00;100.00;100345.38;5164067;56;1139049;-73
2022/09/19 20:15:02;;;;;;;27.10;8.70;;;;;;;11.00;100.00;100351.19;5245621;55;1139047;-74
2022/09/19 20:20:08;;;;;;;42.17;13.33;;;;;;;10.98;100.00;100357.09;5177853;56;1141015;-74
2022/09/19 20:25:14;;;;;;;17.67;5.07;;;;;;;10.98;100.00;100352.63;5177497;56;1141206;-74
2022/09/19 20:30:20;;;;;;;6.05;2.60;;;;;;;10.97;100.00;100356.25;5205880;56;1139132;-73
2022/09/19 20:35:25;;;;;;;2.47;2.00;;;;;;;10.94;100.00;100357.81;5183024;56;1141224;-74
2022/09/19 20:40:31;;;;;;;2.50;1.20;;;;;;;10.90;100.00;100361.66;5233766;56;1141062;-74
2022/09/19 20:45:37;;;;;;;2.43;1.40;;;;;;;10.84;100.00;100361.70;5220115;56;1141116;-74
2022/09/19 20:50:58;;;;;;;2.40;1.37;;;;;;;10.85;100.00;100362.03;5233095;56;1141222;-73
2022/09/19 20:56:10;;;;;;;1.98;1.80;;;;;;;10.86;100.00;100366.36;5227072;56;1140769;-74
2022/09/19 21:01:18;;;;;;;1.87;1.50;;;;;;;10.78;100.00;100355.58;5181872;56;1141133;-74
2022/09/19 21:06:27;;;;;;;1.97;1.43;;;;;;;10.78;100.00;100355.58;5216667;56;1141085;-74
2022/09/19 21:11:33;;;;;;;1.80;1.40;;;;;;;10.79;100.00;100365.19;5216369;56;1141169;-73
2022/09/19 21:16:39;;;;;;;1.50;1.40;;;;;;;10.78;100.00;100371.45;5228508;56;1141079;-74
2022/09/19 21:21:45;;;;;;;1.33;1.20;;;;;;;10.77;100.00;100375.05;5228684;56;1141171;-73
2022/09/19 21:26:51;;;;;;;1.80;1.43;;;;;;;10.74;100.00;100373.97;5228490;56;1140689;-73
2022/09/19 21:31:57;;;;;;;5.00;1.70;;;;;;;10.71;100.00;100378.66;5228575;56;1141412;-73
2022/09/19 21:37:04;;;;;;;3.00;1.93;;;;;;;10.64;100.00;100369.07;5190960;56;1141127;-73
2022/09/19 21:42:10;;;;;;;2.73;1.67;;;;;;;10.60;100.00;100372.92;5143462;56;1141454;-74
2022/09/19 21:47:15;;;;;;;1.83;1.70;;;;;;;10.57;100.00;100378.45;5201656;56;1141159;-73
2022/09/19 21:52:21;;;;;;;1.70;1.50;;;;;;;10.49;100.00;100382.20;5165802;56;1141413;-73
2022/09/19 21:57:28;;;;;;;3.53;2.90;;;;;;;10.41;100.00;100381.95;5156245;56;1141081;-74
2022/09/19 22:02:34;;;;;;;2.53;1.43;;;;;;;10.37;100.00;100374.76;5177071;56;1141241;-73
2022/09/19 22:07:40;;;;;;;1.87;1.30;;;;;;;10.32;100.00;100378.72;5019131;57;1141350;-74
2022/09/19 22:12:46;;;;;;;1.43;1.33;;;;;;;10.27;100.00;100374.27;5033414;57;1141049;-74
2022/09/19 22:17:52;;;;;;;5.57;1.73;;;;;;;10.25;100.00;100377.02;5040337;57;1141353;-74
2022/09/19 22:23:00;;;;;;;1.70;1.60;;;;;;;10.24;100.00;100377.98;5018298;57;1141143;-74
2022/09/19 22:28:06;;;;;;;4.03;1.57;;;;;;;10.18;100.00;100385.05;5060766;57;1141079;-74
2022/09/19 22:33:11;;;;;;;3.20;1.70;;;;;;;10.16;100.00;100387.81;5080500;57;1141160;-74
2022/09/19 22:38:17;;;;;;;1.47;1.37;;;;;;;10.15;100.00;100391.89;5079628;57;1141120;-74
2022/09/19 22:43:25;;;;;;;4.78;1.60;;;;;;;10.09;100.00;100394.52;5104041;57;1141361;-74
2022/09/19 22:48:31;;;;;;;2.83;1.70;;;;;;;10.11;100.00;100393.92;5034570;58;1141184;-73
2022/09/19 22:53:38;;;;;;;1.07;1.07;;;;;;;10.17;100.00;100405.36;5102093;57;1141294;-74
2022/09/19 22:58:45;;;;;;;3.93;1.83;;;;;;;10.17;100.00;100400.55;5121750;57;1141091;-74
2022/09/19 23:03:55;;;;;;;4.00;1.77;;;;;;;10.06;100.00;100409.31;5126944;57;1141326;-74
2022/09/19 23:09:04;;;;;;;1.63;1.23;;;;;;;9.96;100.00;100404.84;5213021;56;1141149;-74
2022/09/19 23:14:22;;;;;;;1.87;1.23;;;;;;;9.86;100.00;100411.31;5213051;56;1139392;-74
2022/09/19 23:19:26;;;;;;;2.00;1.30;;;;;;;9.79;100.00;100414.89;5138422;56;1137002;-74
2022/09/19 23:24:32;;;;;;;2.70;1.60;;;;;;;9.69;100.00;100409.95;5217731;56;1136858;-74
2022/09/19 23:29:37;;;;;;;1.53;1.40;;;;;;;9.69;100.00;100409.95;5129740;57;1137325;-73
2022/09/19 23:34:43;;;;;;;2.97;1.70;;;;;;;9.63;100.00;100414.36;5138540;57;1136983;-73
2022/09/19 23:39:49;;;;;;;3.90;1.37;;;;;;;9.56;100.00;100414.95;5074242;57;1136949;-73
2022/09/19 23:44:55;;;;;;;1.62;1.45;;;;;;;9.52;100.00;100419.14;5101460;57;1137046;-74
2022/09/19 23:50:00;;;;;;;2.83;1.30;;;;;;;9.48;100.00;100424.27;5138419;57;1136999;-74
2022/09/19 23:55:07;;;;;;;3.37;1.90;;;;;;;9.47;100.00;100416.50;5161416;56;1137102;-74
